Latest Weather Observations for Biloela

IDQ60801

Issued at 8:52 pm EST Saturday 23 February 2019 (issued every 10 minutes, with the page automatically refreshed every 10 minutes)

About weather observations | Map of weather stations | Latest weather observations for QLD | Other Formats
Station Details ID: 039089 Name: THANGOOL AIRPORT Lat: -24.49 Lon: 150.57 Height: 193.1 m
Data from the previous 72 hours. | See also: Recent months at Biloela
Date/Time
EST
Temp
°C
App
Temp
°C
Dew
Point
°C
Rel
Hum
%
Delta-T
°C
Wind Press
QNH
hPa
Press
MSL
hPa
Rain since
9am
mm
Dir  Spd
km/h
Gust
km/h
Spd
kts
Gust
kts
23/08:30pm 26.0 26.0 17.1 58 5.6 N 13 24 7 13 1014.5 - 0.0
23/08:00pm 26.3 24.9 17.1 57 5.8 NNE 20 28 11 15 1013.8 - 0.0
23/07:30pm 26.9 25.0 16.8 54 6.3 NE 22 30 12 16 1013.2 - 0.0
23/07:00pm 27.7 24.6 15.7 48 7.4 NE 26 37 14 20 1012.7 - 0.0
23/06:30pm 29.7 27.3 14.3 39 9.4 NE 20 26 11 14 1012.0 - 0.0
23/06:00pm 32.4 29.3 7.3 21 13.9 ESE 13 20 7 11 1011.4 1010.2 0.0
23/05:30pm 33.4 30.3 7.4 20 14.4 SE 13 24 7 13 1011.0 - 0.0
23/05:00pm 33.8 30.8 7.7 20 14.6 SE 13 28 7 15 1010.8 - 0.0
23/04:30pm 34.6 31.6 7.6 19 15.1 ESE 13 19 7 10 1010.6 - 0.0
23/04:00pm 33.7 31.4 7.6 20 14.6 E 9 19 5 10 1010.6 - 0.0
23/03:30pm 34.4 32.1 7.5 19 15.0 ESE 9 19 5 10 1010.7 - 0.0
23/03:00pm 34.9 31.9 7.9 19 15.2 SW 13 20 7 11 1010.7 1009.5 0.0
23/02:30pm 34.7 31.9 6.9 18 15.4 SW 11 15 6 8 1011.1 - 0.0
23/02:00pm 33.8 31.3 8.4 21 14.4 SW 11 24 6 13 1011.4 - 0.0
23/01:30pm 33.2 29.3 7.2 20 14.4 SSW 17 24 9 13 1011.8 - 0.0
23/01:00pm 33.2 30.2 7.9 21 14.2 SW 13 26 7 14 1012.1 - 0.0
23/12:30pm 33.0 29.8 8.5 22 13.8 SSW 15 26 8 14 1012.3 - 0.0
23/12:00pm 31.8 30.0 11.0 28 12.1 SSW 11 20 6 11 1012.9 1011.7 0.0
23/11:30am 31.3 30.5 11.1 29 11.8 NNW 6 15 3 8 1013.3 - 0.0
23/11:00am 30.0 28.8 11.5 32 10.8 S 9 15 5 8 1014.0 - 0.0
23/10:30am 30.0 28.0 11.5 32 10.8 SSE 13 22 7 12 1014.3 - 0.0
23/10:00am 29.1 27.0 11.2 33 10.4 E 13 35 7 19 1014.5 - 0.0
23/09:30am 29.0 26.5 11.1 33 10.3 SE 15 22 8 12 1014.6 - 0.0
23/09:00am 26.8 23.8 10.5 36 9.2 ESE 17 28 9 15 1014.6 1013.4 0.0
23/08:30am 27.0 24.3 10.2 35 9.5 SE 15 24 8 13 1014.6 - 0.0
23/08:00am 25.5 22.5 9.3 36 8.9 SE 15 22 8 12 1014.5 - 0.0
23/07:30am 25.1 23.1 10.2 39 8.3 ESE 11 17 6 9 1014.3 - 0.0
23/07:00am 23.2 21.6 10.3 44 7.1 SE 9 20 5 11 1013.8 - 0.0
23/06:30am 22.3 20.8 10.5 47 6.5 ESE 9 17 5 9 1013.3 - 0.0
23/06:00am 22.2 20.2 10.0 46 6.7 ESE 11 15 6 8 1013.2 1012.0 0.0
23/05:30am 22.8 21.8 10.9 47 6.6 ESE 7 11 4 6 1012.9 - 0.0
23/05:00am 23.1 21.9 11.5 48 6.6 ESE 9 13 5 7 1012.7 - 0.0
23/04:30am 24.1 23.4 12.1 47 6.9 SE 7 11 4 6 1012.5 - 0.0
23/04:00am 24.1 26.1 19.2 74 3.2 S 7 11 4 6 1012.2 - 0.0
23/03:30am 23.7 26.5 18.8 74 3.1 SE 2 9 1 5 1012.0 - 0.0
23/03:00am 24.0 26.3 18.6 72 3.4 S 4 6 2 3 1012.0 1010.9 0.0
23/02:30am 23.9 26.9 19.2 75 3.0 ENE 2 7 1 4 1012.0 - 0.0
23/02:00am 23.6 26.9 19.1 76 2.9 CALM 0 0 0 0 1012.0 - 0.0
23/01:30am 23.2 26.2 18.5 75 3.0 CALM 0 0 0 0 1011.8 - 0.0
23/01:00am 23.8 26.8 18.4 72 3.4 CALM 0 0 0 0 1011.7 - 0.0
23/12:30am 25.0 27.4 19.6 72 3.5 N 6 7 3 4 1011.6 - 0.0
23/12:00am 25.1 27.3 19.5 71 3.6 N 7 9 4 5 1011.8 1010.7 0.0
 
Date/Time
EST
Temp
°C
App
Temp
°C
Dew
Point
°C
Rel
Hum
%
Delta-T
°C
Wind Press
QNH
hPa
Press
MSL
hPa
Rain since
9am
mm
Dir  Spd
km/h
Gust
km/h
Spd
kts
Gust
kts
22/11:30pm 25.3 27.5 19.2 69 3.9 NNE 6 9 3 5 1011.6 - 0.0
22/11:00pm 25.5 27.5 19.2 68 4.1 N 7 9 4 5 1011.3 - 0.0
22/10:30pm 25.8 27.8 18.7 65 4.6 N 6 9 3 5 1011.1 - 0.0
22/10:00pm 26.4 28.5 19.3 65 4.6 N 7 13 4 7 1010.9 - 0.0
22/09:30pm 26.8 28.4 19.2 63 4.9 N 9 13 5 7 1010.6 - 0.0
22/09:00pm 27.9 29.6 19.4 60 5.6 NNE 9 17 5 9 1010.0 1008.8 0.0
22/08:30pm 28.5 31.3 18.9 56 6.2 N 2 7 1 4 1009.3 - 0.0
22/08:00pm 30.0 31.1 18.1 49 7.7 NE 9 13 5 7 1008.8 - 0.0
22/07:30pm 30.4 31.2 18.2 48 7.9 ENE 11 15 6 8 1008.4 - 0.0
22/07:00pm 32.7 31.9 12.9 30 11.9 ESE 9 13 5 7 1007.6 - 0.0
22/06:30pm 33.9 33.1 12.8 28 12.8 SE 9 20 5 11 1006.9 - 0.0
22/06:00pm 34.1 34.3 13.0 28 12.8 E 4 6 2 3 1006.6 1005.4 0.0
22/05:30pm 34.0 33.0 12.4 27 13.0 E 9 13 5 7 1006.4 - 0.0
22/05:00pm 34.6 34.5 13.4 28 13.0 SE 6 11 3 6 1006.5 - 0.0
22/04:30pm 34.2 32.1 12.5 27 13.1 S 15 28 8 15 1006.6 - 0.0
22/04:00pm 33.8 31.2 13.8 30 12.3 SSW 20 32 11 17 1006.3 - 0.0
22/03:30pm 34.6 34.0 13.4 28 13.0 S 9 17 5 9 1006.1 - 0.0
22/03:00pm 34.5 32.5 12.8 27 13.2 S 15 28 8 15 1006.4 1005.2 0.0
22/02:30pm 35.0 33.7 13.8 28 13.1 SSE 13 20 7 11 1006.7 - 0.0
22/02:00pm 35.7 35.0 14.4 28 13.3 SSE 11 20 6 11 1007.2 - 0.0
22/01:30pm 33.6 32.4 15.1 33 11.6 SSE 15 24 8 13 1007.5 - 0.0
22/01:00pm 33.4 32.7 15.4 34 11.3 S 13 22 7 12 1007.8 - 0.0
22/12:30pm 33.1 32.3 15.1 33 11.2 S 13 28 7 15 1008.1 - 0.0
22/12:00pm 33.7 33.0 16.5 35 11.0 S 15 26 8 14 1008.5 1007.3 0.0
22/11:30am 31.7 31.2 16.0 38 9.9 SE 13 20 7 11 1008.9 - 0.0
22/11:00am 32.7 31.7 16.5 37 10.3 S 17 26 9 14 1009.1 - 0.0
22/10:30am 31.2 30.9 16.4 41 9.4 S 13 30 7 16 1009.4 - 0.0
22/10:00am 31.4 30.9 16.9 41 9.2 SE 15 28 8 15 1009.4 - 0.0
22/09:30am 29.2 28.5 16.4 46 8.0 SSE 15 24 8 13 1009.7 - 0.0
22/09:00am 28.3 28.2 16.9 50 7.2 S 13 20 7 11 1009.9 1008.7 0.0
22/08:30am 27.7 27.6 16.9 51 6.8 SE 13 19 7 10 1009.8 - 0.0
22/08:00am 26.8 26.8 17.3 56 6.0 SSE 13 20 7 11 1009.7 - 0.0
22/07:30am 25.5 26.0 16.6 58 5.5 S 9 13 5 7 1009.4 - 0.0
22/07:12am 25.1 26.3 17.3 62 4.9 SSW 7 11 4 6 1009.5 - 0.0
22/07:00am 24.5 26.8 17.7 66 4.3 SE 2 7 1 4 1009.3 - 0.0
22/06:33am 21.8 24.3 17.2 75 2.8 CALM 0 0 0 0 1009.3 - 0.0
22/06:30am 21.7 24.3 17.5 77 2.6 CALM 0 0 0 0 1009.2 - 0.0
22/06:00am 20.8 23.0 16.6 77 2.6 CALM 0 4 0 2 1008.8 1007.6 0.0
22/05:30am 21.3 23.7 16.9 76 2.7 CALM 0 0 0 0 1008.4 - 0.0
22/05:00am 22.1 24.0 16.8 72 3.3 SE 2 7 1 4 1008.0 - 0.0
22/04:30am 22.9 24.2 17.1 70 3.6 SE 6 11 3 6 1007.6 - 0.0
22/04:00am 22.9 25.0 19.3 80 2.3 SE 7 13 4 7 1007.3 - 0.0
22/03:30am 22.2 25.2 19.2 83 1.9 SSE 2 6 1 3 1007.3 - 0.0
22/03:00am 22.7 26.4 19.9 84 1.8 CALM 0 0 0 0 1007.5 1006.3 0.0
22/02:39am 22.7 25.2 19.9 84 1.8 SSW 6 7 3 4 1007.6 - 0.0
22/02:30am 22.9 26.0 20.2 85 1.8 SW 4 7 2 4 1007.5 - 0.0
22/02:22am 23.0 26.1 20.3 85 1.8 S 4 7 2 4 1007.5 - 0.0
22/02:00am 23.4 26.1 20.3 83 2.0 SE 6 7 3 4 1007.4 - 0.0
22/01:30am 23.8 27.8 20.5 82 2.2 CALM 0 0 0 0 1007.4 - 0.0
22/01:00am 24.5 28.4 21.2 82 2.2 E 2 6 1 3 1007.7 - 0.0
22/12:30am 24.6 27.8 20.5 78 2.7 S 4 6 2 3 1008.0 - 0.0
22/12:09am 25.0 28.1 21.1 79 2.6 S 6 7 3 4 1007.9 - 0.0
22/12:00am 25.3 28.7 21.6 80 2.5 SSW 6 7 3 4 1007.9 1006.7 0.0
 
Date/Time
EST
Temp
°C
App
Temp
°C
Dew
Point
°C
Rel
Hum
%
Delta-T
°C
Wind Press
QNH
hPa
Press
MSL
hPa
Rain since
9am
mm
Dir  Spd
km/h
Gust
km/h
Spd
kts
Gust
kts
21/11:33pm 25.3 29.8 21.6 80 2.5 CALM 0 2 0 1 1007.7 - 0.0
21/11:30pm 25.2 29.3 21.5 80 2.5 E 2 6 1 3 1007.7 - 0.0
21/11:00pm 25.4 28.8 21.7 80 2.5 SE 6 7 3 4 1007.4 - 0.0
21/10:30pm 25.8 29.1 21.5 77 2.9 ESE 6 7 3 4 1007.4 - 0.0
21/10:26pm 25.8 29.1 21.5 77 2.9 SE 6 9 3 5 1007.4 - 0.0
21/10:00pm 26.4 30.1 21.4 74 3.3 WSW 4 7 2 4 1007.3 - 0.0
21/09:51pm 26.3 30.1 21.7 76 3.1 SSW 4 7 2 4 1007.6 - 0.0
21/09:30pm 26.7 29.6 21.7 74 3.4 ENE 9 13 5 7 1007.4 - 0.0
21/09:00pm 27.4 29.6 21.2 69 4.2 NE 11 19 6 10 1007.1 1005.8 0.0
21/08:30pm 27.6 28.3 21.2 68 4.3 NE 19 28 10 15 1006.4 - 0.0
21/08:00pm 29.7 30.4 20.5 57 6.1 ENE 17 22 9 12 1006.0 - 0.0
21/07:30pm 29.9 31.4 20.5 57 6.3 E 13 19 7 10 1005.8 - 0.0
21/07:09pm 30.1 32.0 20.6 56 6.3 NNE 11 19 6 10 1004.8 - 0.0
21/07:00pm 30.3 30.6 20.5 55 6.5 N 19 26 10 14 1004.6 - 0.0
21/06:44pm 31.0 31.8 20.6 54 7.0 N 17 24 9 13 1004.1 - 0.0
21/06:30pm 31.5 31.6 20.4 51 7.4 NE 20 28 11 15 1003.4 - 0.0
21/06:00pm 32.6 31.9 20.2 48 8.3 NNE 24 33 13 18 1003.0 1001.8 0.0
21/05:30pm 37.3 36.2 12.0 22 15.3 ESE 9 17 5 9 1002.5 - 0.0
21/05:00pm 37.7 36.7 12.3 22 15.5 SSE 9 15 5 8 1002.3 - 0.0
21/04:30pm 37.5 36.3 11.5 21 15.6 SE 9 17 5 9 1002.3 - 0.0
21/04:00pm 39.3 37.7 12.9 20 16.3 SE 13 22 7 12 1002.3 - 0.0
21/03:30pm 38.2 37.3 12.7 21 15.7 SE 9 15 5 8 1002.4 - 0.0
21/03:00pm 38.6 37.7 13.8 23 15.5 SE 11 24 6 13 1002.8 1001.6 0.0
21/02:30pm 38.9 36.9 12.6 21 16.2 SE 15 22 8 12 1003.2 - 0.0
21/02:00pm 38.5 37.1 12.3 21 16.0 SE 11 20 6 11 1003.8 - 0.0
21/01:30pm 37.8 35.7 12.4 22 15.5 SE 15 20 8 11 1004.5 - 0.0
21/01:00pm 38.0 36.2 13.3 23 15.3 SSW 15 20 8 11 1004.8 - 0.0
21/12:30pm 38.0 38.0 15.2 26 14.5 ENE 9 17 5 9 1005.3 - 0.0
21/12:00pm 36.5 35.5 15.6 29 13.3 S 15 24 8 13 1006.0 1004.8 0.0
21/11:58am 35.8 35.0 15.0 29 13.1 SSW 13 24 7 13 1006.1 - 0.0
21/11:42am 35.4 36.0 15.7 31 12.5 WSW 7 19 4 10 1006.3 - 0.0
21/11:30am 35.2 35.5 16.0 31 12.2 S 9 22 5 12 1006.6 - 0.0
21/11:00am 34.5 34.4 15.9 33 11.8 S 11 22 6 12 1007.2 - 0.0
21/10:30am 32.9 33.4 17.5 39 9.9 ENE 11 17 6 9 1007.4 - 0.0
21/10:00am 31.7 32.5 16.4 39 9.7 ESE 7 17 4 9 1007.7 - 0.0
21/09:30am 31.1 32.0 18.5 47 8.2 ESE 11 20 6 11 1007.9 - 0.0
21/09:00am 29.3 29.6 18.7 52 6.9 E 15 22 8 12 1008.1 1006.9 0.0
21/08:30am 28.1 28.1 18.2 55 6.4 E 15 22 8 12 1008.1 - 0.0
21/08:00am 27.8 29.3 18.8 58 5.8 ESE 9 15 5 8 1008.1 - 0.0
21/07:30am 26.6 27.9 18.5 61 5.2 ESE 9 13 5 7 1008.1 - 0.0
21/07:00am 25.6 28.4 18.8 66 4.4 ESE 2 9 1 5 1008.0 - 0.0
21/06:30am 23.2 26.2 18.5 75 3.0 CALM 0 0 0 0 1007.9 - 0.0
21/06:00am 23.1 24.9 18.8 77 2.7 ESE 7 11 4 6 1007.5 1006.3 0.0
21/05:30am 23.5 23.8 18.8 75 3.0 ESE 15 19 8 10 1007.1 - 0.0
21/05:00am 23.6 23.1 18.7 74 3.1 E 19 26 10 14 1006.7 - 0.0
21/04:30am 23.7 25.2 19.0 75 3.0 ESE 9 13 5 7 1006.6 - 0.0
21/04:00am 23.0 24.4 18.7 77 2.7 ESE 9 11 5 6 1006.2 - 0.0
21/03:30am 23.4 25.0 19.1 77 2.8 E 9 11 5 6 1006.0 - 0.0
21/03:00am 23.9 26.5 19.2 75 3.0 E 4 7 2 4 1006.3 1005.1 0.0
21/02:30am 24.5 27.5 18.4 69 3.9 CALM 0 0 0 0 1006.6 - 0.0
21/02:00am 25.1 28.1 18.5 67 4.2 CALM 0 0 0 0 1006.9 - 0.0
21/01:30am 26.2 29.4 19.8 68 4.2 SSW 2 6 1 3 1007.5 - 0.0
21/01:00am 25.9 28.2 19.8 69 4.0 WSW 7 11 4 6 1007.6 - 0.0
21/12:52am 25.9 28.6 19.5 68 4.2 SSE 4 9 2 5 1006.9 - 0.0
21/12:30am 26.3 28.6 19.4 66 4.5 N 6 9 3 5 1006.5 - 0.0
21/12:25am 26.3 28.2 19.7 67 4.3 N 9 11 5 6 1006.3 - 0.0
21/12:00am 26.5 28.5 19.9 67 4.3 ENE 9 13 5 7 1006.7 1005.5 0.0
 
Date/Time
EST
Temp
°C
App
Temp
°C
Dew
Point
°C
Rel
Hum
%
Delta-T
°C
Wind Press
QNH
hPa
Press
MSL
hPa
Rain since
9am
mm
Dir  Spd
km/h
Gust
km/h
Spd
kts
Gust
kts
20/11:30pm 26.8 29.5 20.2 67 4.3 WNW 6 7 3 4 1006.8 - 0.0
20/11:28pm 26.7 29.2 19.8 66 4.5 W 6 7 3 4 1006.9 - 0.0
20/11:08pm 26.8 28.4 19.9 66 4.5 N 11 20 6 11 1006.3 - 0.0
20/11:00pm 26.8 29.1 19.9 66 4.5 NNE 7 11 4 6 1006.3 - 0.0
20/10:30pm 26.8 28.8 19.2 63 4.9 N 7 11 4 6 1006.5 - 0.0
20/10:00pm 27.5 28.8 19.3 61 5.3 N 11 17 6 9 1006.2 - 0.0
20/09:30pm 28.4 29.2 19.1 57 6.1 N 13 20 7 11 1005.9 - 0.0
20/09:00pm 29.0 29.8 18.1 51 7.0 N 11 19 6 10 1005.8 1004.6 0.0

Other formats

Comma delimited format used in spreadsheet applications
http://www.bom.gov.au/fwo/IDQ60801/IDQ60801.94376.axf

JavaScript Object Notation format (JSON) in row-major order
http://www.bom.gov.au/fwo/IDQ60801/IDQ60801.94376.json

Data quality

Most of these data are generated automatically and are frequently updated. Quality checks on data are not normally performed. It is possible for incorrect values to appear. Refer to information at About Latest Weather Observations and please check the disclaimer before using these data.